createdAt,value
2018-03-16T00:02:15.032Z,27.17
2018-03-16T00:04:42.480Z,26.80
2018-03-16T00:07:09.919Z,30.30
2018-03-16T00:09:37.372Z,31.00
2018-03-16T00:12:04.868Z,35.60
2018-03-16T00:14:32.320Z,32.13
2018-03-16T00:16:59.767Z,28.33
2018-03-16T00:19:27.215Z,26.17
2018-03-16T00:21:54.663Z,28.80
2018-03-16T00:24:22.107Z,25.43
2018-03-16T00:26:49.564Z,26.10
2018-03-16T00:29:17.028Z,30.37
2018-03-16T00:31:50.802Z,26.77
2018-03-16T00:34:19.043Z,25.00
2018-03-16T00:36:46.494Z,26.10
2018-03-16T00:39:13.936Z,33.97
2018-03-16T00:41:41.391Z,27.97
2018-03-16T00:44:08.832Z,28.90
2018-03-16T00:46:36.349Z,30.87
2018-03-16T00:49:03.800Z,37.53
2018-03-16T00:51:31.252Z,28.00
2018-03-16T00:53:58.699Z,32.40
2018-03-16T00:56:26.148Z,31.87
2018-03-16T00:58:53.595Z,32.10
2018-03-16T01:01:21.035Z,33.70
2018-03-16T01:03:48.511Z,35.53
2018-03-16T01:06:15.976Z,27.93
2018-03-16T01:08:43.419Z,33.53
2018-03-16T01:11:10.875Z,35.90
2018-03-16T01:13:38.323Z,36.87
2018-03-16T01:16:05.775Z,31.57
2018-03-16T01:18:33.223Z,37.30
2018-03-16T01:21:01.448Z,38.20
2018-03-16T01:23:28.898Z,35.40
2018-03-16T01:25:56.340Z,36.37
2018-03-16T01:28:23.791Z,41.40
2018-03-16T01:30:51.244Z,46.10
2018-03-16T01:33:18.707Z,40.63
2018-03-16T01:35:46.171Z,32.93
2018-03-16T01:38:13.638Z,46.07
2018-03-16T01:40:41.077Z,36.93
2018-03-16T01:43:08.519Z,41.80
2018-03-16T01:45:35.968Z,39.23
2018-03-16T01:48:03.412Z,43.90
2018-03-16T01:50:31.626Z,37.90
2018-03-16T01:53:10.961Z,38.90
2018-03-16T01:55:38.400Z,41.93
2018-03-16T01:58:05.839Z,46.43
2018-03-16T02:00:34.055Z,47.30
2018-03-16T02:03:01.503Z,44.00
2018-03-16T02:05:29.728Z,47.10
2018-03-16T02:07:57.175Z,47.50
2018-03-16T02:10:24.628Z,48.37
2018-03-16T02:12:52.079Z,47.27
2018-03-16T02:15:19.523Z,49.40
2018-03-16T02:17:46.979Z,47.77
2018-03-16T02:20:14.431Z,47.87
2018-03-16T02:22:41.877Z,44.37
2018-03-16T02:25:09.332Z,49.70
2018-03-16T02:27:36.788Z,40.80
2018-03-16T02:30:04.232Z,45.17
2018-03-16T02:32:31.687Z,41.90
2018-03-16T02:34:59.123Z,41.43
2018-03-16T02:37:27.360Z,42.10
2018-03-16T02:39:54.807Z,35.10
2018-03-16T02:42:22.245Z,40.87
2018-03-16T02:44:49.708Z,45.47
2018-03-16T02:47:17.161Z,35.17
2018-03-16T02:49:44.608Z,46.50
2018-03-16T02:52:12.064Z,44.60
2018-03-16T02:54:39.499Z,43.77
2018-03-16T02:57:07.708Z,41.60
2018-03-16T02:59:35.156Z,43.90
2018-03-16T03:02:02.604Z,41.57
2018-03-16T03:04:30.074Z,38.03
2018-03-16T03:06:58.303Z,39.10
2018-03-16T03:09:25.755Z,37.97
2018-03-16T03:11:54.734Z,34.30
2018-03-16T03:14:22.172Z,33.13
2018-03-16T03:16:49.642Z,31.80
2018-03-16T03:19:17.070Z,32.03
2018-03-16T03:21:44.528Z,30.77
2018-03-16T03:24:11.978Z,29.03
2018-03-16T03:26:39.429Z,37.13
2018-03-16T03:29:06.879Z,31.70
2018-03-16T03:31:34.356Z,31.67
2018-03-16T03:34:01.806Z,33.60
2018-03-16T03:36:29.256Z,42.77
2018-03-16T03:38:56.696Z,37.57
2018-03-16T03:41:24.911Z,37.50
2018-03-16T03:43:52.767Z,35.83
2018-03-16T03:46:20.223Z,38.70
2018-03-16T03:48:47.667Z,36.50
2018-03-16T03:51:15.119Z,38.80
2018-03-16T03:53:42.618Z,34.97
2018-03-16T03:56:10.771Z,39.23
2018-03-16T03:58:38.232Z,36.80
2018-03-16T04:01:05.667Z,34.47
2018-03-16T04:03:33.120Z,37.80
2018-03-16T04:06:00.564Z,40.20
2018-03-16T04:08:28.779Z,34.37
2018-03-16T04:10:56.230Z,35.00
2018-03-16T04:13:23.687Z,32.63
2018-03-16T04:15:51.144Z,35.60
2018-03-16T04:18:18.583Z,35.50
2018-03-16T04:20:46.034Z,32.50
2018-03-16T04:23:13.475Z,32.27
2018-03-16T04:25:41.692Z,30.73
2018-03-16T04:28:09.201Z,35.37
2018-03-16T04:30:36.638Z,36.87
2018-03-16T04:33:04.096Z,35.30
2018-03-16T04:35:31.535Z,35.80
2018-03-16T04:37:58.987Z,31.53
2018-03-16T04:40:26.427Z,33.07
2018-03-16T04:42:53.883Z,35.47
2018-03-16T04:45:21.323Z,32.97
2018-03-16T04:47:48.768Z,33.70
2018-03-16T04:50:16.975Z,32.67
2018-03-16T04:52:44.431Z,37.07
2018-03-16T04:55:11.872Z,37.37
2018-03-16T04:57:39.327Z,29.30
2018-03-16T05:00:06.780Z,34.77
2018-03-16T05:02:34.254Z,32.80
2018-03-16T05:05:01.719Z,30.97
2018-03-16T05:07:29.169Z,32.40
2018-03-16T05:09:56.616Z,32.77
2018-03-16T05:12:24.083Z,29.70
2018-03-16T05:14:51.534Z,27.53
2018-03-16T05:17:18.976Z,24.83
2018-03-16T05:19:46.423Z,28.57
2018-03-16T05:22:14.640Z,23.50
2018-03-16T05:24:42.136Z,26.60
2018-03-16T05:27:09.580Z,27.50
2018-03-16T05:29:37.024Z,31.23
2018-03-16T05:32:04.475Z,24.90
2018-03-16T05:34:31.927Z,30.47
2018-03-16T05:36:59.371Z,27.30
2018-03-16T05:39:26.832Z,21.20
2018-03-16T05:41:54.283Z,24.93
2018-03-16T05:44:21.738Z,23.43
2018-03-16T05:46:49.195Z,23.33
2018-03-16T05:49:16.640Z,22.70
2018-03-16T05:51:44.092Z,20.60
2018-03-16T05:54:12.300Z,22.47
2018-03-16T05:56:39.751Z,26.03
2018-03-16T05:59:08.154Z,24.30
2018-03-16T06:01:35.607Z,29.30
2018-03-16T06:04:03.048Z,25.70
2018-03-16T06:06:30.511Z,30.37
2018-03-16T06:08:57.958Z,25.77
2018-03-16T06:11:25.408Z,27.77
2018-03-16T06:13:52.868Z,29.20
2018-03-16T06:16:20.313Z,26.13
2018-03-16T06:18:47.759Z,35.87
2018-03-16T06:21:15.204Z,35.80
2018-03-16T06:23:43.411Z,34.67
2018-03-16T06:26:10.863Z,28.10
2018-03-16T06:28:38.336Z,26.53
2018-03-16T06:31:05.775Z,44.70
2018-03-16T06:33:33.218Z,35.67
2018-03-16T06:36:00.668Z,37.23
2018-03-16T06:38:28.116Z,39.80
2018-03-16T06:40:56.339Z,37.47
2018-03-16T06:43:23.802Z,36.07
2018-03-16T06:45:51.259Z,48.97
2018-03-16T06:48:18.706Z,47.40
2018-03-16T06:50:46.147Z,52.13
2018-03-16T06:53:13.600Z,49.47
2018-03-16T06:55:41.041Z,48.33
2018-03-16T06:58:08.495Z,39.50
2018-03-16T07:00:36.712Z,41.03
2018-03-16T07:03:04.149Z,40.33
2018-03-16T07:05:31.588Z,38.87
2018-03-16T07:07:59.035Z,43.40
2018-03-16T07:10:27.251Z,42.43
2018-03-16T07:12:54.702Z,38.73
2018-03-16T07:15:34.082Z,35.23
2018-03-16T07:18:02.360Z,40.40
2018-03-16T07:20:29.744Z,39.70
2018-03-16T07:23:00.965Z,40.80
2018-03-16T07:25:31.699Z,37.33
2018-03-16T07:27:59.918Z,40.83
2018-03-16T07:30:29.934Z,39.20
2018-03-16T07:32:57.364Z,35.07
2018-03-16T07:35:28.438Z,39.63
2018-03-16T07:37:57.718Z,36.80
2018-03-16T07:40:25.152Z,39.27
2018-03-16T07:42:54.701Z,41.70
2018-03-16T07:48:04.683Z,30.67
2018-03-16T07:50:32.134Z,46.00
2018-03-16T07:52:59.612Z,38.50
2018-03-16T07:55:27.068Z,29.70
2018-03-16T07:57:54.507Z,33.97
2018-03-16T08:00:22.120Z,34.30
2018-03-16T08:02:50.330Z,34.43
2018-03-16T08:05:17.792Z,38.40
2018-03-16T08:07:45.239Z,36.40
2018-03-16T08:10:12.691Z,33.73
2018-03-16T08:12:40.147Z,34.10
2018-03-16T08:15:07.646Z,39.07
2018-03-16T08:17:35.803Z,41.60
2018-03-16T08:20:03.258Z,42.27
2018-03-16T08:22:30.752Z,32.40
2018-03-16T08:24:58.161Z,44.63
2018-03-16T08:27:25.615Z,35.47
2018-03-16T08:29:53.072Z,36.57
2018-03-16T08:32:20.529Z,41.30
2018-03-16T08:34:47.987Z,34.03
2018-03-16T08:37:15.436Z,37.50
2018-03-16T08:39:42.879Z,48.13
2018-03-16T08:42:10.346Z,46.23
2018-03-16T08:44:37.795Z,35.93
2018-03-16T08:47:05.264Z,35.20
2018-03-16T08:49:32.699Z,35.67
2018-03-16T08:52:00.144Z,33.33
2018-03-16T08:54:28.356Z,35.67
2018-03-16T08:56:55.811Z,30.73
2018-03-16T08:59:23.267Z,29.23
2018-03-16T09:01:50.711Z,33.10
2018-03-16T09:04:18.151Z,31.13
2018-03-16T09:06:46.363Z,37.63
2018-03-16T09:09:13.805Z,29.97
2018-03-16T09:11:41.266Z,31.93
2018-03-16T09:14:08.695Z,32.20
2018-03-16T09:16:36.920Z,30.20
2018-03-16T09:19:04.364Z,29.97
2018-03-16T09:21:31.873Z,29.60
2018-03-16T09:24:00.075Z,34.33
2018-03-16T09:26:27.530Z,35.43
2018-03-16T09:28:54.980Z,40.50
2018-03-16T09:31:22.424Z,31.87
2018-03-16T09:33:50.640Z,33.30
2018-03-16T09:36:18.085Z,33.90
2018-03-16T09:38:45.528Z,49.90
2018-03-16T09:41:12.979Z,48.07
2018-03-16T09:43:41.201Z,49.53
2018-03-16T09:46:09.607Z,33.93
2018-03-16T09:48:37.059Z,40.10
2018-03-16T09:51:04.500Z,33.60
2018-03-16T09:53:31.956Z,39.87
2018-03-16T09:55:59.410Z,32.90
2018-03-16T09:58:26.863Z,39.20
2018-03-16T10:00:54.311Z,42.50
2018-03-16T10:03:21.759Z,33.37
2018-03-16T10:05:49.212Z,34.03
2018-03-16T10:08:16.698Z,37.77
2018-03-16T10:10:44.140Z,32.40
2018-03-16T10:13:11.603Z,36.03
2018-03-16T10:15:39.048Z,34.30
2018-03-16T10:18:06.489Z,41.63
2018-03-16T10:20:33.927Z,37.57
2018-03-16T10:23:02.162Z,35.77
2018-03-16T10:25:29.600Z,32.50
2018-03-16T10:27:57.044Z,28.87
2018-03-16T10:30:24.488Z,37.60
2018-03-16T10:32:51.929Z,33.77
2018-03-16T10:35:20.149Z,32.27
2018-03-16T10:37:47.604Z,29.97
2018-03-16T10:40:15.064Z,29.47
2018-03-16T10:42:42.518Z,25.13
2018-03-16T10:45:09.960Z,25.27
2018-03-16T10:47:37.424Z,25.17
2018-03-16T10:50:04.865Z,27.33
2018-03-16T10:52:32.312Z,26.23
2018-03-16T10:54:59.755Z,24.13
2018-03-16T10:57:27.978Z,22.30
2018-03-16T10:59:55.417Z,29.10
2018-03-16T11:02:22.860Z,25.77
2018-03-16T11:04:55.919Z,25.43
2018-03-16T11:07:43.224Z,23.20
2018-03-16T11:10:11.432Z,24.10
2018-03-16T11:12:39.651Z,24.90
2018-03-16T11:15:07.099Z,20.33
2018-03-16T11:17:34.543Z,21.10
2018-03-16T11:20:01.991Z,22.53
2018-03-16T11:22:29.452Z,26.60
2018-03-16T11:24:56.887Z,20.17
2018-03-16T11:27:25.119Z,19.80
2018-03-16T11:29:52.561Z,19.30
2018-03-16T11:32:20.008Z,20.43
2018-03-16T11:34:47.461Z,20.63
2018-03-16T11:37:14.904Z,26.03
2018-03-16T11:39:42.404Z,17.10
2018-03-16T11:42:09.842Z,20.47
2018-03-16T11:44:37.292Z,17.77
2018-03-16T11:47:04.734Z,16.00
2018-03-16T11:49:32.188Z,15.40
2018-03-16T11:51:59.648Z,17.17
2018-03-16T11:54:27.083Z,12.60
2018-03-16T11:56:55.308Z,12.90
2018-03-16T11:59:22.745Z,13.90
2018-03-16T12:01:51.016Z,12.27
2018-03-16T12:04:18.452Z,14.97
2018-03-16T12:06:46.681Z,14.27
2018-03-16T12:09:14.183Z,15.77
2018-03-16T12:11:41.596Z,12.50
2018-03-16T12:14:09.035Z,12.20
2018-03-16T12:16:36.472Z,12.63
2018-03-16T12:19:03.933Z,11.03
2018-03-16T12:21:31.363Z,13.20
2018-03-16T12:24:00.273Z,10.93
2018-03-16T12:26:27.713Z,10.60
2018-03-16T12:28:55.920Z,11.10
2018-03-16T12:31:23.371Z,12.30
2018-03-16T12:33:50.828Z,10.83
2018-03-16T12:36:18.286Z,8.80
2018-03-16T12:38:45.719Z,10.93
2018-03-16T12:41:13.166Z,11.80
2018-03-16T12:43:41.373Z,9.27
2018-03-16T12:46:08.831Z,13.27
2018-03-16T12:48:36.290Z,10.53
2018-03-16T12:51:03.731Z,10.63
2018-03-16T12:53:31.217Z,11.50
2018-03-16T12:55:59.387Z,12.60
2018-03-16T12:58:26.835Z,10.57
2018-03-16T13:00:54.286Z,10.90
2018-03-16T13:03:21.749Z,12.43
2018-03-16T13:05:49.179Z,11.67
2018-03-16T13:08:16.619Z,13.03
2018-03-16T13:10:44.833Z,13.20
2018-03-16T13:13:12.286Z,14.07
2018-03-16T13:15:39.748Z,11.97
2018-03-16T13:18:07.188Z,14.73
2018-03-16T13:20:34.641Z,11.37
2018-03-16T13:23:02.085Z,12.83
2018-03-16T13:25:30.291Z,16.53
2018-03-16T13:27:57.736Z,12.90
2018-03-16T13:30:25.180Z,12.40
2018-03-16T13:32:53.400Z,15.93
2018-03-16T13:35:20.841Z,16.77
2018-03-16T13:37:48.296Z,15.97
2018-03-16T13:40:15.764Z,14.13
2018-03-16T13:42:43.223Z,16.17
2018-03-16T13:45:10.663Z,16.23
2018-03-16T13:47:38.111Z,13.30
2018-03-16T13:50:05.568Z,16.20
2018-03-16T13:52:33.004Z,21.00
2018-03-16T13:55:01.224Z,18.80
2018-03-16T13:57:28.665Z,16.27
2018-03-16T13:59:56.127Z,15.07
2018-03-16T14:02:23.575Z,14.10
2018-03-16T14:04:51.012Z,14.70
2018-03-16T14:07:19.224Z,14.33
2018-03-16T14:09:46.668Z,15.10
2018-03-16T14:12:14.115Z,13.30
2018-03-16T14:14:41.562Z,15.43
2018-03-16T14:17:09.005Z,16.70
2018-03-16T14:19:37.215Z,19.47
2018-03-16T14:22:04.656Z,20.67
2018-03-16T14:24:32.131Z,15.00
2018-03-16T14:26:59.584Z,17.70
2018-03-16T14:29:27.047Z,21.30
2018-03-16T14:31:54.495Z,14.87
2018-03-16T14:34:21.944Z,14.10
2018-03-16T14:36:49.388Z,21.17
2018-03-16T14:39:16.835Z,16.00
2018-03-16T14:41:45.111Z,21.23
2018-03-16T14:44:12.512Z,18.70
2018-03-16T14:46:39.976Z,17.17
2018-03-16T14:49:07.412Z,13.90
2018-03-16T14:51:34.869Z,14.20
2018-03-16T14:54:02.312Z,19.40
2018-03-16T14:56:29.772Z,21.03
2018-03-16T14:58:57.222Z,16.07
2018-03-16T15:01:24.660Z,18.17
2018-03-16T15:03:52.874Z,19.30
2018-03-16T15:06:20.331Z,17.67
2018-03-16T15:08:47.785Z,24.30
2018-03-16T15:11:15.232Z,18.83
2018-03-16T15:13:42.676Z,18.13
2018-03-16T15:16:10.142Z,23.73
2018-03-16T15:18:37.579Z,16.40
2018-03-16T15:21:05.795Z,17.03
2018-03-16T15:23:33.251Z,18.90
2018-03-16T15:26:00.699Z,24.73
2018-03-16T15:28:28.134Z,16.10
2018-03-16T15:30:55.592Z,20.93
2018-03-16T15:33:23.037Z,18.20
2018-03-16T15:35:51.256Z,21.97
2018-03-16T15:38:18.725Z,24.47
2018-03-16T15:40:46.175Z,22.83
2018-03-16T15:43:13.624Z,22.97
2018-03-16T15:45:41.076Z,23.43
2018-03-16T15:48:08.521Z,25.07
2018-03-16T15:50:35.967Z,21.87
2018-03-16T15:53:03.416Z,23.00
2018-03-16T15:55:31.639Z,19.83
2018-03-16T15:57:59.088Z,19.07
2018-03-16T16:00:26.553Z,21.00
2018-03-16T16:02:54.000Z,17.87
2018-03-16T16:05:21.460Z,17.77
2018-03-16T16:07:48.902Z,17.47
2018-03-16T16:10:16.348Z,14.53
2018-03-16T16:12:43.800Z,20.60
2018-03-16T16:15:11.276Z,22.50
2018-03-16T16:17:38.705Z,14.90
2018-03-16T16:20:06.151Z,20.63
2018-03-16T16:22:34.381Z,15.13
2018-03-16T16:25:01.843Z,16.50
2018-03-16T16:27:29.295Z,17.60
2018-03-16T16:29:56.756Z,10.80
2018-03-16T16:32:24.223Z,10.37
2018-03-16T16:34:51.673Z,16.87
2018-03-16T16:37:19.117Z,13.93
2018-03-16T16:39:46.576Z,11.67
2018-03-16T16:42:14.016Z,10.93
2018-03-16T16:44:41.481Z,10.97
2018-03-16T16:47:08.928Z,14.00
2018-03-16T16:49:36.359Z,12.93
2018-03-16T16:52:04.586Z,15.60
2018-03-16T16:54:32.037Z,10.73
2018-03-16T16:56:59.488Z,16.60
2018-03-16T16:59:26.943Z,16.10
2018-03-16T17:01:54.387Z,12.67
2018-03-16T17:04:21.897Z,17.40
2018-03-16T17:06:49.341Z,14.77
2018-03-16T17:09:16.811Z,15.50
2018-03-16T17:11:45.769Z,17.27
2018-03-16T17:14:13.207Z,16.90
2018-03-16T17:16:40.675Z,16.30
2018-03-16T17:19:08.128Z,15.27
2018-03-16T17:21:35.588Z,14.87
2018-03-16T17:24:03.052Z,14.67
2018-03-16T17:26:30.495Z,17.30
2018-03-16T17:28:58.032Z,11.17
2018-03-16T17:31:25.495Z,11.70
2018-03-16T17:33:52.946Z,13.50
2018-03-16T17:36:20.404Z,10.03
2018-03-16T17:38:47.844Z,8.53
2018-03-16T17:41:16.043Z,13.80
2018-03-16T17:43:43.486Z,9.57
2018-03-16T17:46:11.702Z,12.00
2018-03-16T17:48:39.145Z,8.97
2018-03-16T17:51:06.602Z,13.97
2018-03-16T17:53:34.050Z,11.00
2018-03-16T17:56:01.488Z,7.70
2018-03-16T17:58:29.722Z,10.13
2018-03-16T18:00:57.164Z,9.77
2018-03-16T18:03:24.614Z,9.53
2018-03-16T18:05:52.055Z,7.30
2018-03-16T18:08:19.489Z,8.20
2018-03-16T18:10:46.985Z,7.00
2018-03-16T18:13:14.472Z,11.30
2018-03-16T18:15:41.911Z,7.80
2018-03-16T18:18:09.364Z,12.53
2018-03-16T18:20:36.803Z,12.43
2018-03-16T18:23:04.256Z,12.77
2018-03-16T18:25:31.725Z,17.23
2018-03-16T18:27:59.176Z,13.97
2018-03-16T18:30:26.667Z,14.67
2018-03-16T18:32:54.105Z,11.27
2018-03-16T18:35:21.577Z,13.97
2018-03-16T18:37:49.065Z,13.60
2018-03-16T18:40:17.280Z,13.17
2018-03-16T18:42:44.758Z,11.73
2018-03-16T18:45:12.193Z,9.77
2018-03-16T18:47:39.647Z,11.13
2018-03-16T18:50:07.118Z,9.93
2018-03-16T18:52:34.765Z,9.07
2018-03-16T18:55:02.224Z,12.70
2018-03-16T18:57:29.663Z,8.10
2018-03-16T18:59:57.239Z,9.97
2018-03-16T19:02:24.707Z,11.17
2018-03-16T19:04:52.257Z,10.40
2018-03-16T19:07:19.803Z,7.73
2018-03-16T19:09:47.332Z,9.90
2018-03-16T19:12:15.749Z,10.50
2018-03-16T19:14:43.220Z,14.37
2018-03-16T19:17:11.073Z,14.40
2018-03-16T19:19:38.691Z,9.10
2018-03-16T19:22:07.385Z,7.47
2018-03-16T19:24:35.287Z,9.30
2018-03-16T19:27:03.164Z,8.40
2018-03-16T19:29:32.287Z,10.97
2018-03-16T19:32:00.115Z,9.37
2018-03-16T19:34:28.399Z,9.03
2018-03-16T19:36:56.085Z,11.20
2018-03-16T19:39:23.663Z,10.63
2018-03-16T19:41:51.689Z,11.37
2018-03-16T19:44:19.268Z,11.40
2018-03-16T19:46:46.804Z,10.50
2018-03-16T19:49:14.722Z,13.63
2018-03-16T19:51:42.842Z,13.67
2018-03-16T19:54:11.644Z,9.37
2018-03-16T19:56:39.711Z,11.50
2018-03-16T19:59:07.783Z,10.73
2018-03-16T20:01:36.567Z,9.67
2018-03-16T20:04:05.211Z,11.33
2018-03-16T20:06:33.885Z,13.53
2018-03-16T20:09:01.548Z,16.30
2018-03-16T20:11:30.179Z,11.33
2018-03-16T20:13:58.149Z,8.73
2018-03-16T20:16:25.914Z,8.83
2018-03-16T20:18:54.093Z,12.87
2018-03-16T20:21:22.029Z,10.50
2018-03-16T20:23:50.722Z,13.80
2018-03-16T20:26:18.361Z,10.90
2018-03-16T20:28:46.986Z,13.93
2018-03-16T20:31:15.262Z,14.30
2018-03-16T20:33:42.906Z,10.17
2018-03-16T20:36:10.505Z,14.90
2018-03-16T20:38:38.551Z,14.17
2018-03-16T20:41:06.232Z,15.67
2018-03-16T20:43:34.287Z,15.67
2018-03-16T20:46:02.797Z,15.50
2018-03-16T20:48:30.839Z,13.67
2018-03-16T20:50:58.387Z,15.00
2018-03-16T20:53:26.064Z,20.73
2018-03-16T20:55:53.747Z,17.90
2018-03-16T20:58:21.332Z,19.00
2018-03-16T21:00:49.275Z,19.90
2018-03-16T21:03:18.552Z,16.03
2018-03-16T21:05:46.132Z,16.53
2018-03-16T21:08:14.016Z,19.37
2018-03-16T21:10:41.604Z,18.07
2018-03-16T21:13:09.305Z,17.33
2018-03-16T21:15:36.901Z,20.70
2018-03-16T21:18:04.829Z,18.53
2018-03-16T21:20:32.799Z,18.37
2018-03-16T21:23:00.561Z,17.73
2018-03-16T21:25:28.232Z,19.63
2018-03-16T21:27:56.294Z,19.67
2018-03-16T21:30:23.803Z,18.67
2018-03-16T21:32:51.266Z,20.07
2018-03-16T21:35:19.076Z,20.50
2018-03-16T21:37:46.572Z,15.30
2018-03-16T21:40:14.012Z,7.87
2018-03-16T21:42:41.497Z,11.60
2018-03-16T21:45:09.734Z,19.33
2018-03-16T21:47:37.188Z,14.10
2018-03-16T21:50:04.653Z,21.77
2018-03-16T21:52:32.101Z,22.67
2018-03-16T21:54:59.566Z,16.30
2018-03-16T21:57:27.015Z,23.57
2018-03-16T21:59:54.504Z,19.77
2018-03-16T22:02:21.981Z,20.07
2018-03-16T22:04:49.427Z,25.87
2018-03-16T22:07:16.984Z,18.97
2018-03-16T22:09:44.432Z,13.33
2018-03-16T22:12:11.963Z,24.90
2018-03-16T22:14:39.407Z,14.80
2018-03-16T22:17:06.852Z,17.70
2018-03-16T22:19:34.317Z,23.57
2018-03-16T22:22:01.775Z,19.83
2018-03-16T22:24:29.232Z,19.00
2018-03-16T22:26:56.671Z,19.67
2018-03-16T22:29:24.136Z,13.53
2018-03-16T22:31:51.584Z,13.50
2018-03-16T22:34:19.059Z,20.50
2018-03-16T22:36:46.504Z,19.55
2018-03-16T22:39:13.948Z,11.43
2018-03-16T22:41:42.176Z,15.43
2018-03-16T22:44:09.643Z,19.67
2018-03-16T22:46:37.087Z,13.47
2018-03-16T22:49:04.566Z,17.37
2018-03-16T22:51:32.017Z,18.63
2018-03-16T22:53:59.472Z,20.40
2018-03-16T22:56:26.931Z,13.00
2018-03-16T22:58:54.384Z,8.35
2018-03-16T23:01:21.837Z,8.13
2018-03-16T23:03:49.308Z,20.70
2018-03-16T23:06:16.760Z,15.80
2018-03-16T23:08:44.204Z,10.63
2018-03-16T23:11:11.660Z,19.13
2018-03-16T23:13:39.110Z,19.10
2018-03-16T23:16:06.592Z,21.83
2018-03-16T23:18:34.050Z,9.80
2018-03-16T23:21:01.483Z,12.27
2018-03-16T23:23:28.936Z,24.37
2018-03-16T23:25:56.400Z,14.30
2018-03-16T23:28:23.865Z,19.23
2018-03-16T23:30:51.363Z,18.93
2018-03-16T23:33:19.591Z,19.80
2018-03-16T23:35:47.039Z,17.83
2018-03-16T23:38:14.517Z,25.43
2018-03-16T23:40:41.960Z,21.67
2018-03-16T23:43:09.415Z,24.40
2018-03-16T23:45:36.867Z,22.07
2018-03-16T23:48:04.335Z,21.33
2018-03-16T23:50:31.788Z,22.60
2018-03-16T23:52:59.235Z,23.10
2018-03-16T23:55:26.695Z,22.80
2018-03-16T23:57:54.148Z,18.33
